sensor_id;sensor_type;location;lat;lon;timestamp;P1;durP1;ratioP1;P2;durP2;ratioP2
51124;SDS011;37163;55.556;39.108;2023-04-10T00:01:01;13.93;;;7.38;;
51124;SDS011;37163;55.556;39.108;2023-04-10T00:03:28;14.52;;;8.70;;
51124;SDS011;37163;55.556;39.108;2023-04-10T00:05:54;15.60;;;8.10;;
51124;SDS011;37163;55.556;39.108;2023-04-10T00:08:22;16.63;;;8.32;;
51124;SDS011;37163;55.556;39.108;2023-04-10T00:10:49;13.10;;;6.85;;
51124;SDS011;37163;55.556;39.108;2023-04-10T00:13:15;13.98;;;8.20;;
51124;SDS011;37163;55.556;39.108;2023-04-10T00:15:42;13.35;;;7.88;;
51124;SDS011;37163;55.556;39.108;2023-04-10T00:18:08;12.15;;;7.55;;
51124;SDS011;37163;55.556;39.108;2023-04-10T00:20:35;15.65;;;8.25;;
51124;SDS011;37163;55.556;39.108;2023-04-10T00:23:01;14.88;;;7.90;;
51124;SDS011;37163;55.556;39.108;2023-04-10T00:25:27;16.75;;;8.15;;
51124;SDS011;37163;55.556;39.108;2023-04-10T00:27:54;14.73;;;8.07;;
51124;SDS011;37163;55.556;39.108;2023-04-10T00:30:20;16.38;;;8.82;;
51124;SDS011;37163;55.556;39.108;2023-04-10T00:32:47;14.75;;;8.25;;
51124;SDS011;37163;55.556;39.108;2023-04-10T00:35:13;16.65;;;8.30;;
51124;SDS011;37163;55.556;39.108;2023-04-10T00:37:40;14.10;;;7.85;;
51124;SDS011;37163;55.556;39.108;2023-04-10T00:40:06;14.32;;;7.78;;
51124;SDS011;37163;55.556;39.108;2023-04-10T00:42:33;12.43;;;7.82;;
51124;SDS011;37163;55.556;39.108;2023-04-10T00:44:59;14.32;;;7.85;;
51124;SDS011;37163;55.556;39.108;2023-04-10T00:47:26;16.38;;;7.63;;
51124;SDS011;37163;55.556;39.108;2023-04-10T00:49:53;12.68;;;7.88;;
51124;SDS011;37163;55.556;39.108;2023-04-10T00:52:19;17.05;;;7.78;;
51124;SDS011;37163;55.556;39.108;2023-04-10T00:54:45;11.40;;;6.85;;
51124;SDS011;37163;55.556;39.108;2023-04-10T00:57:12;12.95;;;8.02;;
51124;SDS011;37163;55.556;39.108;2023-04-10T00:59:38;13.85;;;8.13;;
51124;SDS011;37163;55.556;39.108;2023-04-10T01:02:04;17.98;;;8.38;;
51124;SDS011;37163;55.556;39.108;2023-04-10T01:04:31;15.57;;;8.07;;
51124;SDS011;37163;55.556;39.108;2023-04-10T01:15:24;13.73;;;7.20;;
51124;SDS011;37163;55.556;39.108;2023-04-10T01:17:57;12.20;;;7.35;;
51124;SDS011;37163;55.556;39.108;2023-04-10T01:20:32;17.48;;;9.05;;
51124;SDS011;37163;55.556;39.108;2023-04-10T01:31:52;13.02;;;6.97;;
51124;SDS011;37163;55.556;39.108;2023-04-10T01:34:25;12.32;;;6.32;;
51124;SDS011;37163;55.556;39.108;2023-04-10T01:36:57;15.60;;;7.85;;
51124;SDS011;37163;55.556;39.108;2023-04-10T01:39:25;12.43;;;7.72;;
51124;SDS011;37163;55.556;39.108;2023-04-10T01:41:53;13.40;;;8.02;;
51124;SDS011;37163;55.556;39.108;2023-04-10T01:44:37;15.60;;;7.60;;
51124;SDS011;37163;55.556;39.108;2023-04-10T01:47:06;11.73;;;7.50;;
51124;SDS011;37163;55.556;39.108;2023-04-10T01:49:33;14.85;;;8.18;;
51124;SDS011;37163;55.556;39.108;2023-04-10T01:52:03;14.27;;;7.15;;
51124;SDS011;37163;55.556;39.108;2023-04-10T01:54:31;12.85;;;7.22;;
51124;SDS011;37163;55.556;39.108;2023-04-10T01:57:00;17.83;;;8.57;;
51124;SDS011;37163;55.556;39.108;2023-04-10T01:59:32;15.95;;;8.63;;
51124;SDS011;37163;55.556;39.108;2023-04-10T02:01:58;20.15;;;8.65;;
51124;SDS011;37163;55.556;39.108;2023-04-10T02:04:26;19.33;;;8.25;;
51124;SDS011;37163;55.556;39.108;2023-04-10T02:07:02;15.57;;;8.55;;
51124;SDS011;37163;55.556;39.108;2023-04-10T02:09:33;17.70;;;8.45;;
51124;SDS011;37163;55.556;39.108;2023-04-10T02:12:40;15.70;;;8.23;;
51124;SDS011;37163;55.556;39.108;2023-04-10T02:15:09;16.90;;;9.48;;
51124;SDS011;37163;55.556;39.108;2023-04-10T02:17:37;16.52;;;7.28;;
51124;SDS011;37163;55.556;39.108;2023-04-10T02:20:04;16.40;;;8.40;;
51124;SDS011;37163;55.556;39.108;2023-04-10T02:22:32;21.38;;;9.50;;
51124;SDS011;37163;55.556;39.108;2023-04-10T02:24:58;17.65;;;8.85;;
51124;SDS011;37163;55.556;39.108;2023-04-10T02:27:26;17.42;;;9.02;;
51124;SDS011;37163;55.556;39.108;2023-04-10T02:29:58;18.95;;;9.25;;
51124;SDS011;37163;55.556;39.108;2023-04-10T02:32:25;17.85;;;9.38;;
51124;SDS011;37163;55.556;39.108;2023-04-10T02:34:52;16.98;;;9.07;;
51124;SDS011;37163;55.556;39.108;2023-04-10T02:37:18;17.80;;;9.10;;
51124;SDS011;37163;55.556;39.108;2023-04-10T02:39:44;19.02;;;9.23;;
51124;SDS011;37163;55.556;39.108;2023-04-10T02:42:11;20.10;;;9.90;;
51124;SDS011;37163;55.556;39.108;2023-04-10T02:44:38;17.55;;;8.90;;
51124;SDS011;37163;55.556;39.108;2023-04-10T02:47:06;17.77;;;8.77;;
51124;SDS011;37163;55.556;39.108;2023-04-10T02:49:34;19.08;;;8.32;;
51124;SDS011;37163;55.556;39.108;2023-04-10T02:52:07;14.63;;;7.95;;
51124;SDS011;37163;55.556;39.108;2023-04-10T02:54:34;12.35;;;7.32;;
51124;SDS011;37163;55.556;39.108;2023-04-10T02:57:00;14.05;;;7.80;;
51124;SDS011;37163;55.556;39.108;2023-04-10T02:59:27;14.95;;;6.95;;
51124;SDS011;37163;55.556;39.108;2023-04-10T03:01:54;13.65;;;7.68;;
51124;SDS011;37163;55.556;39.108;2023-04-10T03:04:20;10.10;;;6.55;;
51124;SDS011;37163;55.556;39.108;2023-04-10T03:06:47;11.93;;;6.45;;
51124;SDS011;37163;55.556;39.108;2023-04-10T03:09:14;17.73;;;7.63;;
51124;SDS011;37163;55.556;39.108;2023-04-10T03:11:41;11.43;;;6.70;;
51124;SDS011;37163;55.556;39.108;2023-04-10T03:14:08;13.35;;;6.50;;
51124;SDS011;37163;55.556;39.108;2023-04-10T03:16:34;14.13;;;7.45;;
51124;SDS011;37163;55.556;39.108;2023-04-10T03:19:02;12.32;;;7.25;;
51124;SDS011;37163;55.556;39.108;2023-04-10T03:21:29;13.10;;;6.68;;
51124;SDS011;37163;55.556;39.108;2023-04-10T03:23:55;11.98;;;6.07;;
51124;SDS011;37163;55.556;39.108;2023-04-10T03:26:22;10.43;;;6.50;;
51124;SDS011;37163;55.556;39.108;2023-04-10T03:28:49;10.27;;;6.38;;
51124;SDS011;37163;55.556;39.108;2023-04-10T03:31:16;10.30;;;6.30;;
51124;SDS011;37163;55.556;39.108;2023-04-10T03:33:44;12.57;;;5.75;;
51124;SDS011;37163;55.556;39.108;2023-04-10T03:36:10;7.65;;;6.30;;
51124;SDS011;37163;55.556;39.108;2023-04-10T03:38:37;11.23;;;6.55;;
51124;SDS011;37163;55.556;39.108;2023-04-10T03:41:04;10.70;;;6.25;;
51124;SDS011;37163;55.556;39.108;2023-04-10T03:43:32;9.90;;;6.55;;
51124;SDS011;37163;55.556;39.108;2023-04-10T03:46:00;14.45;;;7.50;;
51124;SDS011;37163;55.556;39.108;2023-04-10T03:48:26;9.88;;;6.45;;
51124;SDS011;37163;55.556;39.108;2023-04-10T03:50:55;11.38;;;6.65;;
51124;SDS011;37163;55.556;39.108;2023-04-10T03:53:21;9.77;;;6.35;;
51124;SDS011;37163;55.556;39.108;2023-04-10T03:55:49;10.23;;;7.40;;
51124;SDS011;37163;55.556;39.108;2023-04-10T03:58:17;11.98;;;6.45;;
51124;SDS011;37163;55.556;39.108;2023-04-10T04:00:44;10.25;;;7.50;;
51124;SDS011;37163;55.556;39.108;2023-04-10T04:03:20;10.20;;;6.63;;
51124;SDS011;37163;55.556;39.108;2023-04-10T04:06:05;13.90;;;6.90;;
51124;SDS011;37163;55.556;39.108;2023-04-10T04:08:52;9.55;;;6.45;;
51124;SDS011;37163;55.556;39.108;2023-04-10T04:11:33;10.15;;;6.10;;
51124;SDS011;37163;55.556;39.108;2023-04-10T04:14:05;10.18;;;6.57;;
51124;SDS011;37163;55.556;39.108;2023-04-10T04:16:42;10.82;;;6.55;;
51124;SDS011;37163;55.556;39.108;2023-04-10T04:19:24;11.73;;;6.25;;
51124;SDS011;37163;55.556;39.108;2023-04-10T04:22:29;9.95;;;6.45;;
51124;SDS011;37163;55.556;39.108;2023-04-10T04:25:08;13.98;;;7.38;;
51124;SDS011;37163;55.556;39.108;2023-04-10T04:27:54;11.38;;;6.60;;
51124;SDS011;37163;55.556;39.108;2023-04-10T04:30:39;11.57;;;6.78;;
51124;SDS011;37163;55.556;39.108;2023-04-10T04:33:12;10.57;;;6.68;;
51124;SDS011;37163;55.556;39.108;2023-04-10T04:35:57;11.07;;;6.95;;
51124;SDS011;37163;55.556;39.108;2023-04-10T04:38:47;16.10;;;8.52;;
51124;SDS011;37163;55.556;39.108;2023-04-10T04:44:37;11.40;;;7.35;;
51124;SDS011;37163;55.556;39.108;2023-04-10T04:47:28;9.65;;;6.13;;
51124;SDS011;37163;55.556;39.108;2023-04-10T04:50:15;11.25;;;6.10;;
51124;SDS011;37163;55.556;39.108;2023-04-10T04:53:12;9.77;;;6.63;;
51124;SDS011;37163;55.556;39.108;2023-04-10T04:55:46;11.18;;;6.55;;
51124;SDS011;37163;55.556;39.108;2023-04-10T04:58:36;9.80;;;6.70;;
51124;SDS011;37163;55.556;39.108;2023-04-10T05:01:12;8.93;;;6.22;;
51124;SDS011;37163;55.556;39.108;2023-04-10T05:04:09;11.63;;;7.00;;
51124;SDS011;37163;55.556;39.108;2023-04-10T05:06:54;12.35;;;6.82;;
51124;SDS011;37163;55.556;39.108;2023-04-10T05:09:33;11.85;;;6.90;;
51124;SDS011;37163;55.556;39.108;2023-04-10T05:12:29;8.38;;;6.15;;
51124;SDS011;37163;55.556;39.108;2023-04-10T05:15:15;11.10;;;6.30;;
51124;SDS011;37163;55.556;39.108;2023-04-10T05:17:49;10.27;;;6.43;;
51124;SDS011;37163;55.556;39.108;2023-04-10T05:20:36;10.13;;;6.30;;
51124;SDS011;37163;55.556;39.108;2023-04-10T05:23:14;10.93;;;7.00;;
51124;SDS011;37163;55.556;39.108;2023-04-10T05:25:44;11.48;;;7.28;;
51124;SDS011;37163;55.556;39.108;2023-04-10T05:28:18;8.70;;;6.32;;
51124;SDS011;37163;55.556;39.108;2023-04-10T05:31:16;13.07;;;8.00;;
51124;SDS011;37163;55.556;39.108;2023-04-10T05:33:49;11.25;;;6.70;;
51124;SDS011;37163;55.556;39.108;2023-04-10T05:36:23;9.88;;;7.15;;
51124;SDS011;37163;55.556;39.108;2023-04-10T05:39:13;11.45;;;7.35;;
51124;SDS011;37163;55.556;39.108;2023-04-10T05:41:55;13.32;;;7.93;;
51124;SDS011;37163;55.556;39.108;2023-04-10T05:44:51;10.32;;;7.55;;
51124;SDS011;37163;55.556;39.108;2023-04-10T05:47:38;12.07;;;8.65;;
51124;SDS011;37163;55.556;39.108;2023-04-10T05:50:27;11.82;;;8.25;;
51124;SDS011;37163;55.556;39.108;2023-04-10T05:53:12;13.48;;;7.95;;
51124;SDS011;37163;55.556;39.108;2023-04-10T05:55:58;13.40;;;8.25;;
51124;SDS011;37163;55.556;39.108;2023-04-10T05:58:45;14.43;;;9.63;;
51124;SDS011;37163;55.556;39.108;2023-04-10T06:01:11;13.60;;;9.50;;
51124;SDS011;37163;55.556;39.108;2023-04-10T06:03:45;17.35;;;9.35;;
51124;SDS011;37163;55.556;39.108;2023-04-10T06:06:13;14.27;;;9.57;;
51124;SDS011;37163;55.556;39.108;2023-04-10T06:08:40;12.27;;;8.77;;
51124;SDS011;37163;55.556;39.108;2023-04-10T06:11:07;14.95;;;9.23;;
51124;SDS011;37163;55.556;39.108;2023-04-10T06:13:34;13.63;;;8.88;;
51124;SDS011;37163;55.556;39.108;2023-04-10T06:16:01;15.95;;;10.25;;
51124;SDS011;37163;55.556;39.108;2023-04-10T06:18:30;16.05;;;10.05;;
51124;SDS011;37163;55.556;39.108;2023-04-10T06:20:56;14.60;;;9.48;;
51124;SDS011;37163;55.556;39.108;2023-04-10T06:23:25;14.00;;;9.35;;
51124;SDS011;37163;55.556;39.108;2023-04-10T06:25:53;14.30;;;8.60;;
51124;SDS011;37163;55.556;39.108;2023-04-10T06:28:20;12.40;;;8.85;;
51124;SDS011;37163;55.556;39.108;2023-04-10T06:30:50;12.07;;;8.13;;
51124;SDS011;37163;55.556;39.108;2023-04-10T06:33:17;15.13;;;9.32;;
51124;SDS011;37163;55.556;39.108;2023-04-10T06:35:44;13.23;;;8.77;;
51124;SDS011;37163;55.556;39.108;2023-04-10T06:38:11;14.07;;;8.63;;
51124;SDS011;37163;55.556;39.108;2023-04-10T06:40:39;12.00;;;8.65;;
51124;SDS011;37163;55.556;39.108;2023-04-10T06:43:06;16.33;;;11.52;;
51124;SDS011;37163;55.556;39.108;2023-04-10T06:45:36;15.18;;;10.25;;
51124;SDS011;37163;55.556;39.108;2023-04-10T06:48:03;32.80;;;27.00;;
51124;SDS011;37163;55.556;39.108;2023-04-10T06:50:29;38.85;;;34.65;;
51124;SDS011;37163;55.556;39.108;2023-04-10T06:52:56;43.63;;;36.92;;
51124;SDS011;37163;55.556;39.108;2023-04-10T06:55:27;43.60;;;37.45;;
51124;SDS011;37163;55.556;39.108;2023-04-10T06:57:54;37.15;;;30.50;;
51124;SDS011;37163;55.556;39.108;2023-04-10T07:00:21;30.17;;;27.00;;
51124;SDS011;37163;55.556;39.108;2023-04-10T07:02:48;16.25;;;13.35;;
51124;SDS011;37163;55.556;39.108;2023-04-10T07:05:14;15.30;;;12.55;;
51124;SDS011;37163;55.556;39.108;2023-04-10T07:07:41;14.90;;;8.57;;
51124;SDS011;37163;55.556;39.108;2023-04-10T07:10:07;10.73;;;6.72;;
51124;SDS011;37163;55.556;39.108;2023-04-10T07:12:34;9.95;;;7.13;;
51124;SDS011;37163;55.556;39.108;2023-04-10T07:15:01;11.65;;;7.32;;
51124;SDS011;37163;55.556;39.108;2023-04-10T07:17:29;9.25;;;6.80;;
51124;SDS011;37163;55.556;39.108;2023-04-10T07:19:55;10.90;;;7.00;;
51124;SDS011;37163;55.556;39.108;2023-04-10T07:22:22;9.82;;;7.05;;
51124;SDS011;37163;55.556;39.108;2023-04-10T07:24:48;9.70;;;6.82;;
51124;SDS011;37163;55.556;39.108;2023-04-10T07:27:15;10.40;;;7.40;;
51124;SDS011;37163;55.556;39.108;2023-04-10T07:29:41;11.02;;;7.13;;
51124;SDS011;37163;55.556;39.108;2023-04-10T07:32:08;8.82;;;6.75;;
51124;SDS011;37163;55.556;39.108;2023-04-10T07:34:34;9.63;;;6.80;;
51124;SDS011;37163;55.556;39.108;2023-04-10T07:37:01;8.00;;;5.55;;
51124;SDS011;37163;55.556;39.108;2023-04-10T07:39:27;8.65;;;5.43;;
51124;SDS011;37163;55.556;39.108;2023-04-10T07:41:54;8.95;;;5.88;;
51124;SDS011;37163;55.556;39.108;2023-04-10T07:44:20;9.63;;;6.13;;
51124;SDS011;37163;55.556;39.108;2023-04-10T07:46:47;10.13;;;6.45;;
51124;SDS011;37163;55.556;39.108;2023-04-10T07:49:13;9.43;;;6.45;;
51124;SDS011;37163;55.556;39.108;2023-04-10T07:51:40;8.93;;;6.55;;
51124;SDS011;37163;55.556;39.108;2023-04-10T07:54:07;9.85;;;7.43;;
51124;SDS011;37163;55.556;39.108;2023-04-10T07:56:34;8.23;;;6.97;;
51124;SDS011;37163;55.556;39.108;2023-04-10T07:59:01;10.00;;;6.43;;
51124;SDS011;37163;55.556;39.108;2023-04-10T08:01:27;9.30;;;6.25;;
51124;SDS011;37163;55.556;39.108;2023-04-10T08:04:13;8.93;;;6.55;;
51124;SDS011;37163;55.556;39.108;2023-04-10T08:06:39;9.38;;;7.57;;
51124;SDS011;37163;55.556;39.108;2023-04-10T08:09:06;13.18;;;8.95;;
51124;SDS011;37163;55.556;39.108;2023-04-10T08:11:33;11.13;;;7.32;;
51124;SDS011;37163;55.556;39.108;2023-04-10T08:14:02;9.70;;;6.93;;
51124;SDS011;37163;55.556;39.108;2023-04-10T08:16:29;11.88;;;7.47;;
51124;SDS011;37163;55.556;39.108;2023-04-10T08:18:57;9.77;;;6.93;;
51124;SDS011;37163;55.556;39.108;2023-04-10T08:21:24;8.50;;;6.90;;
51124;SDS011;37163;55.556;39.108;2023-04-10T08:23:56;8.48;;;5.32;;
51124;SDS011;37163;55.556;39.108;2023-04-10T08:26:24;11.85;;;5.75;;
51124;SDS011;37163;55.556;39.108;2023-04-10T08:28:51;8.32;;;6.03;;
51124;SDS011;37163;55.556;39.108;2023-04-10T08:31:19;11.00;;;6.72;;
51124;SDS011;37163;55.556;39.108;2023-04-10T08:33:46;8.48;;;6.00;;
51124;SDS011;37163;55.556;39.108;2023-04-10T08:36:13;8.23;;;5.45;;
51124;SDS011;37163;55.556;39.108;2023-04-10T08:38:41;8.18;;;5.30;;
51124;SDS011;37163;55.556;39.108;2023-04-10T08:41:11;8.15;;;4.88;;
51124;SDS011;37163;55.556;39.108;2023-04-10T08:43:38;7.68;;;5.45;;
51124;SDS011;37163;55.556;39.108;2023-04-10T08:46:05;9.00;;;5.60;;
51124;SDS011;37163;55.556;39.108;2023-04-10T08:48:38;7.93;;;4.90;;
51124;SDS011;37163;55.556;39.108;2023-04-10T08:51:10;6.78;;;5.35;;
51124;SDS011;37163;55.556;39.108;2023-04-10T08:53:40;7.28;;;5.13;;
51124;SDS011;37163;55.556;39.108;2023-04-10T08:56:09;7.40;;;4.97;;
51124;SDS011;37163;55.556;39.108;2023-04-10T08:58:39;8.00;;;5.50;;
51124;SDS011;37163;55.556;39.108;2023-04-10T09:01:06;7.13;;;4.70;;
51124;SDS011;37163;55.556;39.108;2023-04-10T09:03:34;8.30;;;5.30;;
51124;SDS011;37163;55.556;39.108;2023-04-10T09:06:04;7.70;;;5.32;;
51124;SDS011;37163;55.556;39.108;2023-04-10T09:08:30;7.88;;;5.30;;
51124;SDS011;37163;55.556;39.108;2023-04-10T09:10:57;8.63;;;5.50;;
51124;SDS011;37163;55.556;39.108;2023-04-10T09:13:37;7.93;;;5.28;;
51124;SDS011;37163;55.556;39.108;2023-04-10T09:16:05;7.85;;;5.47;;
51124;SDS011;37163;55.556;39.108;2023-04-10T09:18:42;8.90;;;6.07;;
51124;SDS011;37163;55.556;39.108;2023-04-10T09:21:09;7.82;;;5.90;;
51124;SDS011;37163;55.556;39.108;2023-04-10T09:23:37;9.32;;;5.47;;
51124;SDS011;37163;55.556;39.108;2023-04-10T09:26:23;7.32;;;5.45;;
51124;SDS011;37163;55.556;39.108;2023-04-10T09:28:54;9.82;;;6.00;;
51124;SDS011;37163;55.556;39.108;2023-04-10T09:31:29;8.25;;;6.32;;
51124;SDS011;37163;55.556;39.108;2023-04-10T09:37:03;7.72;;;5.63;;
51124;SDS011;37163;55.556;39.108;2023-04-10T09:39:34;8.57;;;6.63;;
51124;SDS011;37163;55.556;39.108;2023-04-10T09:42:08;8.60;;;6.25;;
51124;SDS011;37163;55.556;39.108;2023-04-10T09:44:36;10.95;;;6.28;;
51124;SDS011;37163;55.556;39.108;2023-04-10T09:54:45;8.57;;;5.97;;
51124;SDS011;37163;55.556;39.108;2023-04-10T09:57:13;12.80;;;8.52;;
51124;SDS011;37163;55.556;39.108;2023-04-10T09:59:43;14.73;;;11.55;;
51124;SDS011;37163;55.556;39.108;2023-04-10T10:02:15;12.50;;;8.38;;
51124;SDS011;37163;55.556;39.108;2023-04-10T10:04:43;10.95;;;6.85;;
51124;SDS011;37163;55.556;39.108;2023-04-10T10:07:16;12.98;;;6.78;;
51124;SDS011;37163;55.556;39.108;2023-04-10T10:09:45;8.23;;;5.80;;
51124;SDS011;37163;55.556;39.108;2023-04-10T10:12:12;7.93;;;5.45;;
51124;SDS011;37163;55.556;39.108;2023-04-10T10:14:43;11.02;;;6.57;;
51124;SDS011;37163;55.556;39.108;2023-04-10T10:17:17;10.10;;;6.10;;
51124;SDS011;37163;55.556;39.108;2023-04-10T10:20:02;9.60;;;7.18;;
51124;SDS011;37163;55.556;39.108;2023-04-10T10:22:31;9.38;;;7.13;;
51124;SDS011;37163;55.556;39.108;2023-04-10T10:24:57;8.70;;;6.47;;
51124;SDS011;37163;55.556;39.108;2023-04-10T10:27:24;8.52;;;5.88;;
51124;SDS011;37163;55.556;39.108;2023-04-10T10:29:52;8.45;;;5.57;;
51124;SDS011;37163;55.556;39.108;2023-04-10T10:32:20;8.48;;;5.15;;
51124;SDS011;37163;55.556;39.108;2023-04-10T10:34:47;8.90;;;5.72;;
51124;SDS011;37163;55.556;39.108;2023-04-10T10:37:18;11.90;;;5.03;;
51124;SDS011;37163;55.556;39.108;2023-04-10T10:39:52;7.45;;;4.82;;
51124;SDS011;37163;55.556;39.108;2023-04-10T10:48:21;6.00;;;4.55;;
51124;SDS011;37163;55.556;39.108;2023-04-10T10:50:54;7.05;;;4.15;;
51124;SDS011;37163;55.556;39.108;2023-04-10T10:53:36;7.68;;;4.95;;
51124;SDS011;37163;55.556;39.108;2023-04-10T10:58:49;8.85;;;5.38;;
51124;SDS011;37163;55.556;39.108;2023-04-10T11:01:17;6.88;;;4.75;;
51124;SDS011;37163;55.556;39.108;2023-04-10T11:03:45;8.50;;;5.25;;
51124;SDS011;37163;55.556;39.108;2023-04-10T11:06:13;7.68;;;4.65;;
51124;SDS011;37163;55.556;39.108;2023-04-10T11:08:42;11.75;;;7.05;;
51124;SDS011;37163;55.556;39.108;2023-04-10T11:11:21;9.18;;;6.65;;
51124;SDS011;37163;55.556;39.108;2023-04-10T11:16:21;9.63;;;5.47;;
51124;SDS011;37163;55.556;39.108;2023-04-10T11:21:21;6.38;;;4.95;;
51124;SDS011;37163;55.556;39.108;2023-04-10T11:31:45;9.68;;;6.00;;
51124;SDS011;37163;55.556;39.108;2023-04-10T11:34:20;12.65;;;7.72;;
51124;SDS011;37163;55.556;39.108;2023-04-10T11:36:46;8.85;;;5.70;;
51124;SDS011;37163;55.556;39.108;2023-04-10T11:39:13;12.10;;;7.28;;
51124;SDS011;37163;55.556;39.108;2023-04-10T11:41:45;8.35;;;5.45;;
51124;SDS011;37163;55.556;39.108;2023-04-10T11:44:25;9.65;;;6.20;;
51124;SDS011;37163;55.556;39.108;2023-04-10T11:46:56;11.57;;;5.85;;
51124;SDS011;37163;55.556;39.108;2023-04-10T11:49:24;9.23;;;5.55;;
51124;SDS011;37163;55.556;39.108;2023-04-10T11:51:56;8.52;;;5.38;;
51124;SDS011;37163;55.556;39.108;2023-04-10T11:54:23;7.68;;;5.30;;
51124;SDS011;37163;55.556;39.108;2023-04-10T11:56:58;7.93;;;5.45;;
51124;SDS011;37163;55.556;39.108;2023-04-10T11:59:32;9.52;;;5.57;;
51124;SDS011;37163;55.556;39.108;2023-04-10T12:02:04;10.13;;;7.28;;
51124;SDS011;37163;55.556;39.108;2023-04-10T12:04:34;8.57;;;6.57;;
51124;SDS011;37163;55.556;39.108;2023-04-10T12:07:01;12.27;;;7.93;;
51124;SDS011;37163;55.556;39.108;2023-04-10T12:09:28;8.27;;;5.85;;
51124;SDS011;37163;55.556;39.108;2023-04-10T12:11:55;8.43;;;5.20;;
51124;SDS011;37163;55.556;39.108;2023-04-10T12:17:03;9.05;;;6.20;;
51124;SDS011;37163;55.556;39.108;2023-04-10T12:19:30;15.73;;;11.05;;
51124;SDS011;37163;55.556;39.108;2023-04-10T12:21:58;12.50;;;7.95;;
51124;SDS011;37163;55.556;39.108;2023-04-10T12:29:58;10.57;;;5.47;;
51124;SDS011;37163;55.556;39.108;2023-04-10T12:32:25;9.10;;;5.00;;
51124;SDS011;37163;55.556;39.108;2023-04-10T12:34:55;8.27;;;4.82;;
51124;SDS011;37163;55.556;39.108;2023-04-10T12:37:22;6.60;;;4.85;;
51124;SDS011;37163;55.556;39.108;2023-04-10T12:39:49;8.15;;;4.50;;
51124;SDS011;37163;55.556;39.108;2023-04-10T12:47:24;10.00;;;6.03;;
51124;SDS011;37163;55.556;39.108;2023-04-10T12:50:02;9.07;;;4.95;;
51124;SDS011;37163;55.556;39.108;2023-04-10T12:52:33;6.50;;;4.70;;
51124;SDS011;37163;55.556;39.108;2023-04-10T12:55:07;9.35;;;4.90;;
51124;SDS011;37163;55.556;39.108;2023-04-10T12:57:38;7.85;;;5.50;;
51124;SDS011;37163;55.556;39.108;2023-04-10T13:00:06;11.00;;;6.15;;
51124;SDS011;37163;55.556;39.108;2023-04-10T13:02:37;8.18;;;6.05;;
51124;SDS011;37163;55.556;39.108;2023-04-10T13:05:05;9.38;;;6.03;;
51124;SDS011;37163;55.556;39.108;2023-04-10T13:07:32;7.78;;;5.53;;
51124;SDS011;37163;55.556;39.108;2023-04-10T13:09:59;8.68;;;5.55;;
51124;SDS011;37163;55.556;39.108;2023-04-10T13:12:25;7.03;;;5.20;;
51124;SDS011;37163;55.556;39.108;2023-04-10T13:14:53;6.57;;;4.70;;
51124;SDS011;37163;55.556;39.108;2023-04-10T13:17:20;7.20;;;4.78;;
51124;SDS011;37163;55.556;39.108;2023-04-10T13:19:46;8.43;;;5.43;;
51124;SDS011;37163;55.556;39.108;2023-04-10T13:22:13;7.72;;;5.05;;
51124;SDS011;37163;55.556;39.108;2023-04-10T13:24:40;9.68;;;6.13;;
51124;SDS011;37163;55.556;39.108;2023-04-10T13:27:07;7.93;;;5.45;;
51124;SDS011;37163;55.556;39.108;2023-04-10T13:29:34;8.95;;;6.18;;
51124;SDS011;37163;55.556;39.108;2023-04-10T13:32:01;7.63;;;5.60;;
51124;SDS011;37163;55.556;39.108;2023-04-10T13:34:30;10.40;;;5.57;;
51124;SDS011;37163;55.556;39.108;2023-04-10T13:36:57;8.93;;;5.68;;
51124;SDS011;37163;55.556;39.108;2023-04-10T13:39:24;7.20;;;5.35;;
51124;SDS011;37163;55.556;39.108;2023-04-10T13:41:54;7.03;;;4.70;;
51124;SDS011;37163;55.556;39.108;2023-04-10T13:44:21;9.05;;;4.82;;
51124;SDS011;37163;55.556;39.108;2023-04-10T13:46:47;7.05;;;5.22;;
51124;SDS011;37163;55.556;39.108;2023-04-10T13:49:14;6.60;;;4.50;;
51124;SDS011;37163;55.556;39.108;2023-04-10T13:51:44;7.43;;;4.80;;
51124;SDS011;37163;55.556;39.108;2023-04-10T13:54:11;7.47;;;4.45;;
51124;SDS011;37163;55.556;39.108;2023-04-10T13:56:37;9.90;;;4.93;;
51124;SDS011;37163;55.556;39.108;2023-04-10T13:59:04;8.75;;;4.38;;
51124;SDS011;37163;55.556;39.108;2023-04-10T14:01:30;6.45;;;4.40;;
51124;SDS011;37163;55.556;39.108;2023-04-10T14:03:56;9.82;;;4.82;;
51124;SDS011;37163;55.556;39.108;2023-04-10T14:06:23;9.05;;;6.22;;
51124;SDS011;37163;55.556;39.108;2023-04-10T14:08:49;8.70;;;5.60;;
51124;SDS011;37163;55.556;39.108;2023-04-10T14:11:15;9.75;;;4.95;;
51124;SDS011;37163;55.556;39.108;2023-04-10T14:13:42;8.65;;;4.47;;
51124;SDS011;37163;55.556;39.108;2023-04-10T14:16:08;8.43;;;4.75;;
51124;SDS011;37163;55.556;39.108;2023-04-10T14:18:36;7.93;;;5.55;;
51124;SDS011;37163;55.556;39.108;2023-04-10T14:21:02;7.93;;;5.90;;
51124;SDS011;37163;55.556;39.108;2023-04-10T14:23:29;35.30;;;16.65;;
51124;SDS011;37163;55.556;39.108;2023-04-10T14:25:55;35.58;;;19.83;;
51124;SDS011;37163;55.556;39.108;2023-04-10T14:28:22;18.02;;;11.68;;
51124;SDS011;37163;55.556;39.108;2023-04-10T14:30:49;15.40;;;9.18;;
51124;SDS011;37163;55.556;39.108;2023-04-10T14:33:17;14.57;;;8.85;;
51124;SDS011;37163;55.556;39.108;2023-04-10T14:35:43;10.10;;;6.78;;
51124;SDS011;37163;55.556;39.108;2023-04-10T14:38:10;8.38;;;6.00;;
51124;SDS011;37163;55.556;39.108;2023-04-10T14:40:37;8.55;;;5.40;;
51124;SDS011;37163;55.556;39.108;2023-04-10T14:43:07;8.18;;;5.72;;
51124;SDS011;37163;55.556;39.108;2023-04-10T14:45:33;7.25;;;5.13;;
51124;SDS011;37163;55.556;39.108;2023-04-10T14:47:59;8.73;;;5.13;;
51124;SDS011;37163;55.556;39.108;2023-04-10T14:50:29;7.00;;;5.20;;
51124;SDS011;37163;55.556;39.108;2023-04-10T14:52:56;7.78;;;4.65;;
51124;SDS011;37163;55.556;39.108;2023-04-10T14:55:28;8.00;;;4.88;;
51124;SDS011;37163;55.556;39.108;2023-04-10T14:57:55;6.72;;;4.95;;
51124;SDS011;37163;55.556;39.108;2023-04-10T15:00:21;8.18;;;5.28;;
51124;SDS011;37163;55.556;39.108;2023-04-10T15:02:50;7.65;;;4.85;;
51124;SDS011;37163;55.556;39.108;2023-04-10T15:05:16;6.05;;;4.50;;
51124;SDS011;37163;55.556;39.108;2023-04-10T15:07:44;7.35;;;4.80;;
51124;SDS011;37163;55.556;39.108;2023-04-10T15:10:10;6.45;;;4.57;;
51124;SDS011;37163;55.556;39.108;2023-04-10T15:12:38;6.90;;;4.32;;
51124;SDS011;37163;55.556;39.108;2023-04-10T15:15:04;7.68;;;4.50;;
51124;SDS011;37163;55.556;39.108;2023-04-10T15:17:31;7.25;;;4.38;;
51124;SDS011;37163;55.556;39.108;2023-04-10T15:19:58;6.70;;;4.47;;
51124;SDS011;37163;55.556;39.108;2023-04-10T15:22:25;7.82;;;4.25;;
51124;SDS011;37163;55.556;39.108;2023-04-10T15:24:51;6.30;;;4.47;;
51124;SDS011;37163;55.556;39.108;2023-04-10T15:27:18;7.40;;;4.55;;
51124;SDS011;37163;55.556;39.108;2023-04-10T15:29:47;6.93;;;4.63;;
51124;SDS011;37163;55.556;39.108;2023-04-10T15:32:14;7.53;;;4.53;;
51124;SDS011;37163;55.556;39.108;2023-04-10T15:34:40;7.93;;;4.57;;
51124;SDS011;37163;55.556;39.108;2023-04-10T15:37:07;10.18;;;5.47;;
51124;SDS011;37163;55.556;39.108;2023-04-10T15:39:33;10.90;;;5.47;;
51124;SDS011;37163;55.556;39.108;2023-04-10T15:42:02;10.52;;;5.60;;
51124;SDS011;37163;55.556;39.108;2023-04-10T15:44:30;7.72;;;5.60;;
51124;SDS011;37163;55.556;39.108;2023-04-10T15:46:56;6.68;;;4.88;;
51124;SDS011;37163;55.556;39.108;2023-04-10T15:49:23;6.93;;;4.30;;